Bula, Texas
Current Conditions -  °F | °C
As of 4:55 PM on Friday 28 Nov 2014 (Local Time) from KCVN Reporting Station
Clear Clear  
Wind Chill: 73°   Ceiling: Unl
Heat Index: 73°   Visibility: 10mi
Dew Point: 16°   Wind: 13mph
Humidity: 11%   Direction: 230°SW
Pressure: 29.98"   Gusts: NA
Location:  33.91°N, 102.64°W
Report Text: KCVN 282255Z 23011KT 10SM CLR 23/M09 A2998 RMK AO1
Loading
Personal Weather Stations






























Interactive Weather Map New forecast layout! Learn more

10-Day Weather Forecast

Advertisements
Track Severe Weather on mobile